Terminal Aerodrome Forecast
Issued by NWS

Home | Current Version | Previous Version | Graphics & Text | Print | Product List | Glossary On
Versions: 1 2 3 4 5 6 7 8 9 10 11 12 13 14 15 16
000
FTUS43 KICT 041125
TAFRSL
TAF
KRSL 041125Z 0412/0512 02012KT P6SM OVC045
      TEMPO 0412/0414 6SM -SN BR SCT020 OVC030
     FM041600 35014KT P6SM SCT025 BKN100
     FM050000 34005KT P6SM SCT120=

USA.gov is the U.S. government's official web portal to all federal, state and local government web resources and services.